createdAt,value
2023-05-16T00:00:22.057Z,504.00
2023-05-16T00:01:21.942Z,507.00
2023-05-16T00:02:22.075Z,505.00
2023-05-16T00:03:22.261Z,503.00
2023-05-16T00:04:22.201Z,503.00
2023-05-16T00:05:22.673Z,503.00
2023-05-16T00:06:22.322Z,501.00
2023-05-16T00:07:22.415Z,504.00
2023-05-16T00:08:22.477Z,502.00
2023-05-16T00:09:23.651Z,502.00
2023-05-16T00:10:22.650Z,503.00
2023-05-16T00:11:22.729Z,500.00
2023-05-16T00:12:22.822Z,502.00
2023-05-16T00:13:22.890Z,503.00
2023-05-16T00:14:22.962Z,503.00
2023-05-16T00:15:24.148Z,504.00
2023-05-16T00:16:23.180Z,509.00
2023-05-16T00:17:23.257Z,500.00
2023-05-16T00:18:23.282Z,502.00
2023-05-16T00:19:23.429Z,507.00
2023-05-16T00:20:23.667Z,502.00
2023-05-16T00:21:23.889Z,500.00
2023-05-16T00:22:23.606Z,503.00
2023-05-16T00:23:23.683Z,505.00
2023-05-16T00:24:23.758Z,503.00
2023-05-16T00:25:23.853Z,505.00
2023-05-16T00:26:23.909Z,501.00
2023-05-16T00:27:24.000Z,503.00
2023-05-16T00:28:24.083Z,502.00
2023-05-16T00:29:24.141Z,508.00
2023-05-16T00:30:24.349Z,505.00
2023-05-16T00:31:24.314Z,505.00
2023-05-16T00:32:24.423Z,505.00
2023-05-16T00:33:24.452Z,506.00
2023-05-16T00:34:24.574Z,502.00
2023-05-16T00:35:25.132Z,506.00
2023-05-16T00:36:24.730Z,507.00
2023-05-16T00:37:24.751Z,504.00
2023-05-16T00:38:24.830Z,505.00
2023-05-16T00:39:24.909Z,503.00
2023-05-16T00:40:25.325Z,501.00
2023-05-16T00:41:25.069Z,502.00
2023-05-16T00:42:25.140Z,504.00
2023-05-16T00:43:25.225Z,503.00
2023-05-16T00:44:27.208Z,502.00
2023-05-16T00:45:25.385Z,507.00
2023-05-16T00:46:25.502Z,502.00
2023-05-16T00:47:25.596Z,507.00
2023-05-16T00:48:25.616Z,502.00
2023-05-16T00:49:26.707Z,501.00
2023-05-16T00:50:26.058Z,504.00
2023-05-16T00:51:25.847Z,504.00
2023-05-16T00:52:25.927Z,500.00
2023-05-16T00:53:27.524Z,505.00
2023-05-16T00:54:26.085Z,504.00
2023-05-16T00:55:26.189Z,506.00
2023-05-16T00:56:26.251Z,502.00
2023-05-16T00:57:26.321Z,503.00
2023-05-16T00:58:27.146Z,503.00
2023-05-16T00:59:26.470Z,504.00
2023-05-16T01:00:26.873Z,503.00
2023-05-16T01:01:26.640Z,500.00
2023-05-16T01:02:26.764Z,500.00
2023-05-16T01:03:26.896Z,503.00
2023-05-16T01:04:26.926Z,501.00
2023-05-16T01:05:27.164Z,506.00
2023-05-16T01:06:27.012Z,501.00
2023-05-16T01:07:27.099Z,500.00
2023-05-16T01:08:27.172Z,507.00
2023-05-16T01:09:27.248Z,508.00
2023-05-16T01:10:27.669Z,505.00
2023-05-16T01:11:27.409Z,508.00
2023-05-16T01:12:27.482Z,506.00
2023-05-16T01:13:27.565Z,507.00
2023-05-16T01:14:27.641Z,504.00
2023-05-16T01:15:27.882Z,506.00
2023-05-16T01:16:28.718Z,503.00
2023-05-16T01:17:27.935Z,501.00
2023-05-16T01:18:27.947Z,502.00
2023-05-16T01:19:28.179Z,511.00
2023-05-16T01:20:28.086Z,506.00
2023-05-16T01:21:28.141Z,505.00
2023-05-16T01:22:28.203Z,502.00
2023-05-16T01:23:28.229Z,507.00
2023-05-16T01:24:28.297Z,504.00
2023-05-16T01:25:28.568Z,503.00
2023-05-16T01:26:28.479Z,508.00
2023-05-16T01:27:28.453Z,505.00
2023-05-16T01:28:30.249Z,501.00
2023-05-16T01:29:28.565Z,502.00
2023-05-16T01:30:28.635Z,504.00
2023-05-16T01:31:28.753Z,505.00
2023-05-16T01:32:28.851Z,505.00
2023-05-16T01:33:28.857Z,503.00
2023-05-16T01:34:28.927Z,505.00
2023-05-16T01:35:29.938Z,505.00
2023-05-16T01:36:28.936Z,506.00
2023-05-16T01:37:28.948Z,505.00
2023-05-16T01:38:30.711Z,503.00
2023-05-16T01:39:28.957Z,505.00
2023-05-16T01:40:29.100Z,505.00
2023-05-16T01:41:28.981Z,505.00
2023-05-16T01:42:28.978Z,506.00
2023-05-16T01:43:28.986Z,505.00
2023-05-16T01:44:29.069Z,503.00
2023-05-16T01:45:29.418Z,506.00
2023-05-16T01:46:29.251Z,506.00
2023-05-16T01:47:29.326Z,503.00
2023-05-16T01:48:29.407Z,504.00
2023-05-16T01:49:29.365Z,504.00
2023-05-16T01:50:29.595Z,501.00
2023-05-16T01:51:29.542Z,504.00
2023-05-16T01:52:29.640Z,502.00
2023-05-16T01:53:29.702Z,501.00
2023-05-16T01:54:29.772Z,505.00
2023-05-16T01:55:29.812Z,504.00
2023-05-16T01:56:30.757Z,506.00
2023-05-16T01:57:29.974Z,504.00
2023-05-16T01:58:30.033Z,504.00
2023-05-16T01:59:30.102Z,501.00
2023-05-16T02:00:31.147Z,505.00
2023-05-16T02:01:30.279Z,504.00
2023-05-16T02:02:30.314Z,505.00
2023-05-16T02:03:30.414Z,503.00
2023-05-16T02:04:30.464Z,503.00
2023-05-16T02:05:30.533Z,504.00
2023-05-16T02:06:30.598Z,504.00
2023-05-16T02:07:30.666Z,506.00
2023-05-16T02:08:30.734Z,503.00
2023-05-16T02:09:30.807Z,511.00
2023-05-16T02:10:31.665Z,504.00
2023-05-16T02:11:30.947Z,503.00
2023-05-16T02:12:30.995Z,504.00
2023-05-16T02:13:31.070Z,504.00
2023-05-16T02:14:31.116Z,503.00
2023-05-16T02:15:31.177Z,503.00
2023-05-16T02:16:31.288Z,503.00
2023-05-16T02:17:31.278Z,507.00
2023-05-16T02:18:31.350Z,504.00
2023-05-16T02:19:32.200Z,508.00
2023-05-16T02:20:31.427Z,502.00
2023-05-16T02:21:31.600Z,503.00
2023-05-16T02:22:31.567Z,505.00
2023-05-16T02:23:31.636Z,505.00
2023-05-16T02:24:31.715Z,506.00
2023-05-16T02:25:31.784Z,506.00
2023-05-16T02:26:31.881Z,511.00
2023-05-16T02:27:31.926Z,506.00
2023-05-16T02:28:32.018Z,509.00
2023-05-16T02:29:32.097Z,506.00
2023-05-16T02:30:32.186Z,504.00
2023-05-16T02:31:32.690Z,504.00
2023-05-16T02:32:32.347Z,507.00
2023-05-16T02:33:32.442Z,501.00
2023-05-16T02:34:32.498Z,506.00
2023-05-16T02:35:33.705Z,500.00
2023-05-16T02:36:32.675Z,501.00
2023-05-16T02:37:32.749Z,504.00
2023-05-16T02:38:32.842Z,505.00
2023-05-16T02:39:32.932Z,506.00
2023-05-16T02:40:33.000Z,502.00
2023-05-16T02:41:33.076Z,501.00
2023-05-16T02:42:33.165Z,508.00
2023-05-16T02:43:33.246Z,503.00
2023-05-16T02:44:33.318Z,503.00
2023-05-16T02:45:33.401Z,508.00
2023-05-16T02:46:33.539Z,508.00
2023-05-16T02:47:33.603Z,506.00
2023-05-16T02:48:33.651Z,507.00
2023-05-16T02:49:33.738Z,506.00
2023-05-16T02:50:33.834Z,507.00
2023-05-16T02:51:33.942Z,504.00
2023-05-16T02:52:33.986Z,506.00
2023-05-16T02:53:34.078Z,504.00
2023-05-16T02:54:34.143Z,507.00
2023-05-16T02:55:34.234Z,503.00
2023-05-16T02:56:34.308Z,504.00
2023-05-16T02:57:35.197Z,504.00
2023-05-16T02:58:34.462Z,504.00
2023-05-16T02:59:34.557Z,500.00
2023-05-16T03:00:34.623Z,504.00
2023-05-16T03:01:34.766Z,505.00
2023-05-16T03:02:34.847Z,508.00
2023-05-16T03:03:34.940Z,503.00
2023-05-16T03:04:34.894Z,500.00
2023-05-16T03:05:35.677Z,502.00
2023-05-16T03:06:35.001Z,505.00
2023-05-16T03:07:35.036Z,507.00
2023-05-16T03:08:35.063Z,505.00
2023-05-16T03:09:35.099Z,504.00
2023-05-16T03:10:35.156Z,505.00
2023-05-16T03:11:36.814Z,507.00
2023-05-16T03:12:35.244Z,506.00
2023-05-16T03:13:35.300Z,500.00
2023-05-16T03:14:35.346Z,508.00
2023-05-16T03:15:35.406Z,508.00
2023-05-16T03:16:35.493Z,512.00
2023-05-16T03:17:35.557Z,508.00
2023-05-16T03:18:35.560Z,508.00
2023-05-16T03:19:35.583Z,513.00
2023-05-16T03:20:35.626Z,502.00
2023-05-16T03:21:35.676Z,509.00
2023-05-16T03:22:35.765Z,507.00
2023-05-16T03:23:35.798Z,507.00
2023-05-16T03:24:35.886Z,509.00
2023-05-16T03:25:35.930Z,508.00
2023-05-16T03:26:35.984Z,509.00
2023-05-16T03:27:36.037Z,511.00
2023-05-16T03:28:36.120Z,505.00
2023-05-16T03:29:36.188Z,505.00
2023-05-16T03:30:36.271Z,505.00
2023-05-16T03:31:36.384Z,503.00
2023-05-16T03:32:36.430Z,505.00
2023-05-16T03:33:36.479Z,506.00
2023-05-16T03:34:36.514Z,501.00
2023-05-16T03:35:36.545Z,501.00
2023-05-16T03:36:36.589Z,506.00
2023-05-16T03:37:36.652Z,507.00
2023-05-16T03:38:36.706Z,506.00
2023-05-16T03:39:36.744Z,505.00
2023-05-16T03:40:36.784Z,502.00
2023-05-16T03:41:36.817Z,506.00
2023-05-16T03:42:36.847Z,503.00
2023-05-16T03:43:36.892Z,502.00
2023-05-16T03:44:36.938Z,508.00
2023-05-16T03:45:37.745Z,504.00
2023-05-16T03:46:37.004Z,503.00
2023-05-16T03:47:37.084Z,503.00
2023-05-16T03:48:37.056Z,507.00
2023-05-16T03:49:37.101Z,501.00
2023-05-16T03:50:39.513Z,508.00
2023-05-16T03:51:37.161Z,514.00
2023-05-16T03:52:37.180Z,507.00
2023-05-16T03:53:37.176Z,507.00
2023-05-16T03:54:37.185Z,505.00
2023-05-16T03:55:37.195Z,502.00
2023-05-16T03:56:38.233Z,506.00
2023-05-16T03:57:37.284Z,505.00
2023-05-16T03:58:37.228Z,508.00
2023-05-16T03:59:37.239Z,506.00
2023-05-16T04:00:37.264Z,500.00
2023-05-16T04:01:37.294Z,503.00
2023-05-16T04:02:37.492Z,505.00
2023-05-16T04:03:37.269Z,500.00
2023-05-16T04:04:37.282Z,505.00
2023-05-16T04:05:37.330Z,506.00
2023-05-16T04:06:37.329Z,506.00
2023-05-16T04:07:37.336Z,502.00
2023-05-16T04:08:37.339Z,503.00
2023-05-16T04:09:37.349Z,506.00
2023-05-16T04:10:37.367Z,506.00
2023-05-16T04:11:37.390Z,504.00
2023-05-16T04:12:37.403Z,500.00
2023-05-16T04:13:37.459Z,506.00
2023-05-16T04:14:37.443Z,500.00
2023-05-16T04:15:37.457Z,508.00
2023-05-16T04:16:37.498Z,503.00
2023-05-16T04:17:37.525Z,504.00
2023-05-16T04:18:37.533Z,500.00
2023-05-16T04:19:37.506Z,501.00
2023-05-16T04:20:37.521Z,506.00
2023-05-16T04:21:37.528Z,506.00
2023-05-16T04:22:37.567Z,504.00
2023-05-16T04:23:37.549Z,510.00
2023-05-16T04:24:37.565Z,507.00
2023-05-16T04:25:37.579Z,507.00
2023-05-16T04:26:37.586Z,507.00
2023-05-16T04:27:37.626Z,503.00
2023-05-16T04:28:37.625Z,509.00
2023-05-16T04:29:37.635Z,505.00
2023-05-16T04:30:37.665Z,504.00
2023-05-16T04:31:37.741Z,506.00
2023-05-16T04:32:37.703Z,504.00
2023-05-16T04:33:37.688Z,506.00
2023-05-16T04:34:39.737Z,506.00
2023-05-16T04:35:37.740Z,506.00
2023-05-16T04:36:37.713Z,512.00
2023-05-16T04:37:37.730Z,508.00
2023-05-16T04:38:37.751Z,505.00
2023-05-16T04:39:37.745Z,503.00
2023-05-16T04:40:37.758Z,501.00
2023-05-16T04:41:37.777Z,509.00
2023-05-16T04:42:37.793Z,505.00
2023-05-16T04:43:37.796Z,507.00
2023-05-16T04:44:37.812Z,506.00
2023-05-16T04:45:38.057Z,502.00
2023-05-16T04:46:37.875Z,504.00
2023-05-16T04:47:38.681Z,504.00
2023-05-16T04:48:37.866Z,514.00
2023-05-16T04:49:37.887Z,504.00
2023-05-16T04:50:37.901Z,503.00
2023-05-16T04:51:37.903Z,508.00
2023-05-16T04:52:37.929Z,504.00
2023-05-16T04:53:39.803Z,507.00
2023-05-16T04:54:37.950Z,512.00
2023-05-16T04:55:37.950Z,506.00
2023-05-16T04:56:37.966Z,506.00
2023-05-16T04:57:37.980Z,506.00
2023-05-16T04:58:37.990Z,502.00
2023-05-16T04:59:37.996Z,506.00
2023-05-16T05:00:38.002Z,509.00
2023-05-16T05:01:38.089Z,510.00
2023-05-16T05:02:38.057Z,504.00
2023-05-16T05:03:38.063Z,508.00
2023-05-16T05:04:38.096Z,507.00
2023-05-16T05:05:38.202Z,507.00
2023-05-16T05:06:38.082Z,508.00
2023-05-16T05:07:38.082Z,504.00
2023-05-16T05:08:38.096Z,504.00
2023-05-16T05:09:40.203Z,504.00
2023-05-16T05:10:38.136Z,504.00
2023-05-16T05:11:38.150Z,506.00
2023-05-16T05:12:38.217Z,504.00
2023-05-16T05:13:38.195Z,505.00
2023-05-16T05:14:38.255Z,504.00
2023-05-16T05:15:38.297Z,505.00
2023-05-16T05:16:38.334Z,503.00
2023-05-16T05:17:38.452Z,512.00
2023-05-16T05:18:38.607Z,510.00
2023-05-16T05:19:38.637Z,506.00
2023-05-16T05:20:38.537Z,507.00
2023-05-16T05:21:38.586Z,508.00
2023-05-16T05:22:38.615Z,506.00
2023-05-16T05:23:38.646Z,512.00
2023-05-16T05:24:39.631Z,506.00
2023-05-16T05:25:38.752Z,510.00
2023-05-16T05:26:38.768Z,519.00
2023-05-16T05:27:38.827Z,529.00
2023-05-16T05:28:38.889Z,541.00
2023-05-16T05:29:38.970Z,544.00
2023-05-16T05:30:41.186Z,532.00
2023-05-16T05:31:39.064Z,562.00
2023-05-16T05:32:39.167Z,569.00
2023-05-16T05:33:39.083Z,571.00
2023-05-16T05:34:39.102Z,572.00
2023-05-16T05:35:39.111Z,583.00
2023-05-16T05:36:39.134Z,589.00
2023-05-16T05:37:40.123Z,619.00
2023-05-16T05:38:39.131Z,635.00
2023-05-16T05:39:39.146Z,628.00
2023-05-16T05:40:39.178Z,702.00
2023-05-16T05:41:39.233Z,664.00
2023-05-16T05:42:39.167Z,659.00
2023-05-16T05:43:39.167Z,667.00
2023-05-16T05:44:39.175Z,688.00
2023-05-16T05:45:39.218Z,727.00
2023-05-16T05:46:39.179Z,752.00
2023-05-16T05:47:39.270Z,789.00
2023-05-16T05:48:39.222Z,820.00
2023-05-16T05:49:39.213Z,845.00
2023-05-16T05:50:39.205Z,894.00
2023-05-16T05:51:39.197Z,908.00
2023-05-16T05:52:39.203Z,924.00
2023-05-16T05:53:39.217Z,950.00
2023-05-16T05:54:39.213Z,975.00
2023-05-16T05:55:39.210Z,1010.00
2023-05-16T05:56:39.205Z,951.00
2023-05-16T05:57:39.216Z,819.00
2023-05-16T05:58:39.211Z,731.00
2023-05-16T05:59:39.216Z,687.00
2023-05-16T06:00:39.222Z,657.00
2023-05-16T06:01:39.245Z,636.00
2023-05-16T06:02:39.318Z,621.00
2023-05-16T06:03:39.291Z,615.00
2023-05-16T06:04:39.237Z,606.00
2023-05-16T06:05:39.304Z,616.00
2023-05-16T06:06:39.243Z,622.00
2023-05-16T06:07:39.276Z,645.00
2023-05-16T06:08:39.255Z,650.00
2023-05-16T06:09:39.234Z,642.00
2023-05-16T06:10:39.241Z,664.00
2023-05-16T06:11:39.241Z,698.00
2023-05-16T06:12:39.232Z,950.00
2023-05-16T06:13:39.262Z,892.00
2023-05-16T06:14:39.230Z,801.00
2023-05-16T06:15:39.233Z,738.00
2023-05-16T06:16:39.307Z,758.00
2023-05-16T06:17:39.279Z,738.00
2023-05-16T06:18:39.297Z,734.00
2023-05-16T06:19:39.304Z,714.00
2023-05-16T06:20:39.330Z,710.00
2023-05-16T06:21:39.341Z,759.00
2023-05-16T06:22:39.363Z,727.00
2023-05-16T06:23:39.385Z,723.00
2023-05-16T06:24:39.395Z,742.00
2023-05-16T06:25:39.413Z,779.00
2023-05-16T06:26:39.435Z,801.00
2023-05-16T06:27:39.487Z,822.00
2023-05-16T06:28:39.455Z,735.00
2023-05-16T06:29:39.481Z,626.00
2023-05-16T06:30:39.568Z,588.00
2023-05-16T06:31:39.647Z,555.00
2023-05-16T06:32:40.606Z,535.00
2023-05-16T06:33:39.721Z,513.00
2023-05-16T06:34:39.759Z,500.00
2023-05-16T06:35:39.789Z,500.00
2023-05-16T06:36:40.653Z,500.00
2023-05-16T06:37:42.085Z,500.00
2023-05-16T06:38:39.844Z,503.00
2023-05-16T06:39:39.961Z,500.00
2023-05-16T06:40:39.895Z,504.00
2023-05-16T06:41:39.905Z,505.00
2023-05-16T06:42:39.915Z,499.00
2023-05-16T06:43:39.929Z,505.00
2023-05-16T06:44:39.953Z,511.00
2023-05-16T06:45:39.954Z,517.00
2023-05-16T06:46:40.045Z,522.00
2023-05-16T06:47:39.978Z,532.00
2023-05-16T06:48:39.987Z,542.00
2023-05-16T06:49:39.959Z,548.00
2023-05-16T06:50:39.967Z,563.00
2023-05-16T06:51:39.951Z,569.00
2023-05-16T06:52:39.954Z,573.00
2023-05-16T06:53:39.965Z,590.00
2023-05-16T06:54:39.957Z,592.00
2023-05-16T06:55:39.953Z,602.00
2023-05-16T06:56:39.964Z,617.00
2023-05-16T06:57:39.957Z,620.00
2023-05-16T06:58:39.962Z,630.00
2023-05-16T06:59:39.977Z,634.00
2023-05-16T07:00:39.977Z,641.00
2023-05-16T07:01:40.077Z,653.00
2023-05-16T07:02:40.034Z,663.00
2023-05-16T07:03:40.045Z,681.00
2023-05-16T07:04:40.046Z,703.00
2023-05-16T07:05:39.991Z,726.00
2023-05-16T07:06:39.994Z,746.00
2023-05-16T07:07:39.996Z,764.00
2023-05-16T07:08:39.990Z,830.00
2023-05-16T07:09:40.007Z,842.00
2023-05-16T07:10:40.011Z,851.00
2023-05-16T07:11:39.998Z,858.00
2023-05-16T07:12:39.990Z,886.00
2023-05-16T07:13:39.996Z,897.00
2023-05-16T07:14:40.001Z,930.00
2023-05-16T07:15:39.989Z,950.00
2023-05-16T07:16:40.059Z,969.00
2023-05-16T07:17:39.996Z,974.00
2023-05-16T07:18:40.017Z,984.00
2023-05-16T07:19:39.994Z,999.00
2023-05-16T07:20:40.058Z,998.00
2023-05-16T07:21:39.976Z,1024.00
2023-05-16T07:22:39.962Z,1018.00
2023-05-16T07:23:39.972Z,1027.00
2023-05-16T07:24:39.954Z,1014.00
2023-05-16T07:25:39.957Z,1035.00
2023-05-16T07:26:39.940Z,1037.00
2023-05-16T07:27:39.937Z,1050.00
2023-05-16T07:28:39.920Z,1049.00
2023-05-16T07:29:39.925Z,1054.00
2023-05-16T07:30:40.043Z,1052.00
2023-05-16T07:31:39.959Z,1053.00
2023-05-16T07:32:39.977Z,1052.00
2023-05-16T07:33:39.925Z,1048.00
2023-05-16T07:34:39.922Z,1049.00
2023-05-16T07:35:40.255Z,1052.00
2023-05-16T07:36:39.949Z,1053.00
2023-05-16T07:37:39.966Z,1054.00
2023-05-16T07:38:39.909Z,1064.00
2023-05-16T07:39:39.911Z,1061.00
2023-05-16T07:40:39.930Z,1067.00
2023-05-16T07:41:39.913Z,1066.00
2023-05-16T07:42:39.900Z,1071.00
2023-05-16T07:43:39.914Z,1069.00
2023-05-16T07:44:39.948Z,1076.00
2023-05-16T07:45:39.946Z,1076.00
2023-05-16T07:46:40.216Z,1078.00
2023-05-16T07:47:39.937Z,1073.00
2023-05-16T07:48:39.912Z,1077.00
2023-05-16T07:49:39.920Z,1085.00
2023-05-16T07:50:39.920Z,1080.00
2023-05-16T07:51:39.926Z,1079.00
2023-05-16T07:52:40.723Z,1080.00
2023-05-16T07:53:39.936Z,1083.00
2023-05-16T07:54:39.917Z,1087.00
2023-05-16T07:55:40.273Z,1073.00
2023-05-16T07:56:39.926Z,1077.00
2023-05-16T07:57:39.950Z,1070.00
2023-05-16T07:58:39.940Z,1071.00
2023-05-16T07:59:39.972Z,1081.00
2023-05-16T08:00:39.932Z,1067.00
2023-05-16T08:01:39.928Z,1071.00
2023-05-16T08:02:40.128Z,1070.00
2023-05-16T08:03:40.038Z,1068.00
2023-05-16T08:04:39.939Z,1071.00
2023-05-16T08:05:40.776Z,1065.00
2023-05-16T08:06:39.956Z,1066.00
2023-05-16T08:07:39.961Z,1065.00
2023-05-16T08:08:40.012Z,1060.00
2023-05-16T08:09:40.083Z,1060.00
2023-05-16T08:10:39.977Z,1061.00
2023-05-16T08:11:39.988Z,1058.00
2023-05-16T08:12:39.973Z,1061.00
2023-05-16T08:13:39.975Z,1055.00
2023-05-16T08:14:39.975Z,1043.00
2023-05-16T08:15:40.032Z,1032.00
2023-05-16T08:16:40.023Z,1064.00
2023-05-16T08:17:39.996Z,1056.00
2023-05-16T08:18:40.016Z,1032.00
2023-05-16T08:19:39.961Z,1020.00
2023-05-16T08:20:39.954Z,1021.00
2023-05-16T08:21:39.945Z,1016.00
2023-05-16T08:22:39.972Z,998.00
2023-05-16T08:23:39.956Z,1009.00
2023-05-16T08:24:39.982Z,1023.00
2023-05-16T08:25:39.960Z,1031.00
2023-05-16T08:26:39.954Z,1025.00
2023-05-16T08:27:39.961Z,890.00
2023-05-16T08:28:39.960Z,700.00
2023-05-16T08:29:39.976Z,631.00
2023-05-16T08:30:42.536Z,595.00
2023-05-16T08:31:39.995Z,563.00
2023-05-16T08:32:40.034Z,539.00
2023-05-16T08:33:39.965Z,535.00
2023-05-16T08:34:39.971Z,539.00
2023-05-16T08:35:39.976Z,532.00
2023-05-16T08:36:39.976Z,535.00
2023-05-16T08:37:39.997Z,544.00
2023-05-16T08:38:39.982Z,558.00
2023-05-16T08:39:39.985Z,572.00
2023-05-16T08:40:40.079Z,578.00
2023-05-16T08:41:39.994Z,586.00
2023-05-16T08:42:40.000Z,595.00
2023-05-16T08:43:39.991Z,609.00
2023-05-16T08:44:39.993Z,618.00
2023-05-16T08:45:39.983Z,626.00
2023-05-16T08:46:40.012Z,638.00
2023-05-16T08:47:40.069Z,644.00
2023-05-16T08:48:39.990Z,679.00
2023-05-16T08:49:39.983Z,749.00
2023-05-16T08:50:39.965Z,700.00
2023-05-16T08:51:39.980Z,685.00
2023-05-16T08:52:39.964Z,689.00
2023-05-16T08:53:39.975Z,729.00
2023-05-16T08:54:39.952Z,751.00
2023-05-16T08:55:39.950Z,807.00
2023-05-16T08:56:39.968Z,770.00
2023-05-16T08:57:39.920Z,788.00
2023-05-16T08:58:39.915Z,784.00
2023-05-16T08:59:39.911Z,789.00
2023-05-16T09:00:39.966Z,776.00
2023-05-16T09:01:39.978Z,811.00
2023-05-16T09:02:39.933Z,802.00
2023-05-16T09:03:39.907Z,816.00
2023-05-16T09:04:39.858Z,813.00
2023-05-16T09:05:39.861Z,817.00
2023-05-16T09:06:39.855Z,834.00
2023-05-16T09:07:39.850Z,850.00
2023-05-16T09:08:39.831Z,861.00
2023-05-16T09:09:39.831Z,925.00
2023-05-16T09:10:39.805Z,907.00
2023-05-16T09:11:39.794Z,914.00
2023-05-16T09:12:39.793Z,913.00
2023-05-16T09:13:39.798Z,932.00
2023-05-16T09:14:39.773Z,928.00
2023-05-16T09:15:39.773Z,924.00
2023-05-16T09:16:39.823Z,946.00
2023-05-16T09:17:43.099Z,943.00
2023-05-16T09:18:39.836Z,886.00
2023-05-16T09:19:39.778Z,841.00
2023-05-16T09:20:39.721Z,825.00
2023-05-16T09:21:39.718Z,820.00
2023-05-16T09:22:39.737Z,799.00
2023-05-16T09:23:39.726Z,770.00
2023-05-16T09:24:40.219Z,760.00
2023-05-16T09:25:39.709Z,755.00
2023-05-16T09:26:39.708Z,750.00
2023-05-16T09:27:39.683Z,752.00
2023-05-16T09:28:39.784Z,752.00
2023-05-16T09:29:39.689Z,752.00
2023-05-16T09:30:39.693Z,754.00
2023-05-16T09:31:39.689Z,734.00
2023-05-16T09:32:39.700Z,746.00
2023-05-16T09:33:39.672Z,712.00
2023-05-16T09:34:39.676Z,694.00
2023-05-16T09:35:45.351Z,689.00
2023-05-16T09:36:42.886Z,690.00
2023-05-16T09:37:39.658Z,690.00
2023-05-16T09:38:39.663Z,680.00
2023-05-16T09:39:40.224Z,663.00
2023-05-16T09:40:39.670Z,657.00
2023-05-16T09:41:39.710Z,646.00
2023-05-16T09:42:39.670Z,635.00
2023-05-16T09:43:41.669Z,636.00
2023-05-16T09:44:39.782Z,633.00
2023-05-16T09:45:40.147Z,627.00
2023-05-16T09:46:39.699Z,617.00
2023-05-16T09:47:39.698Z,612.00
2023-05-16T09:48:39.666Z,599.00
2023-05-16T09:49:39.693Z,600.00
2023-05-16T09:50:39.722Z,599.00
2023-05-16T09:51:39.746Z,594.00
2023-05-16T09:52:39.752Z,597.00
2023-05-16T09:53:39.790Z,595.00
2023-05-16T09:54:39.818Z,593.00
2023-05-16T09:55:39.862Z,593.00
2023-05-16T09:56:39.880Z,586.00
2023-05-16T09:57:39.898Z,580.00
2023-05-16T09:58:39.921Z,574.00
2023-05-16T09:59:39.953Z,570.00
2023-05-16T10:00:41.984Z,569.00
2023-05-16T10:01:40.047Z,568.00
2023-05-16T10:02:40.108Z,562.00
2023-05-16T10:03:40.258Z,561.00
2023-05-16T10:04:40.140Z,562.00
2023-05-16T10:05:40.176Z,552.00
2023-05-16T10:06:40.255Z,545.00
2023-05-16T10:07:40.251Z,545.00
2023-05-16T10:08:40.283Z,542.00
2023-05-16T10:09:40.328Z,539.00
2023-05-16T10:10:40.368Z,537.00
2023-05-16T10:11:40.409Z,544.00
2023-05-16T10:12:40.533Z,539.00
2023-05-16T10:13:40.470Z,539.00
2023-05-16T10:14:40.570Z,532.00
2023-05-16T10:15:41.284Z,531.00
2023-05-16T10:16:40.667Z,532.00
2023-05-16T10:17:41.315Z,533.00
2023-05-16T10:18:40.715Z,528.00
2023-05-16T10:19:41.239Z,521.00
2023-05-16T10:20:41.749Z,521.00
2023-05-16T10:21:40.782Z,521.00
2023-05-16T10:22:40.896Z,521.00
2023-05-16T10:23:40.863Z,522.00
2023-05-16T10:24:40.896Z,519.00
2023-05-16T10:25:40.951Z,515.00
2023-05-16T10:26:40.995Z,518.00
2023-05-16T10:27:41.025Z,512.00
2023-05-16T10:28:41.071Z,508.00
2023-05-16T10:29:53.338Z,501.00
2023-05-16T10:30:42.124Z,501.00
2023-05-16T10:31:41.145Z,502.00
2023-05-16T10:32:42.867Z,502.00
2023-05-16T10:33:41.173Z,504.00
2023-05-16T10:34:41.144Z,499.00
2023-05-16T10:35:41.144Z,500.00
2023-05-16T10:36:41.145Z,504.00
2023-05-16T10:37:41.141Z,501.00
2023-05-16T10:38:41.167Z,503.00
2023-05-16T10:39:41.162Z,505.00
2023-05-16T10:40:41.168Z,505.00
2023-05-16T10:41:41.174Z,501.00
2023-05-16T10:42:41.169Z,500.00
2023-05-16T10:43:44.471Z,500.00
2023-05-16T10:44:42.777Z,507.00
2023-05-16T10:45:42.269Z,507.00
2023-05-16T10:46:41.237Z,507.00
2023-05-16T10:47:41.240Z,503.00
2023-05-16T10:48:41.283Z,493.00
2023-05-16T10:49:41.220Z,479.00
2023-05-16T10:50:41.223Z,501.00
2023-05-16T10:51:41.265Z,500.00
2023-05-16T10:52:41.302Z,501.00
2023-05-16T10:53:41.270Z,513.00
2023-05-16T10:54:41.271Z,534.00
2023-05-16T10:55:41.270Z,556.00
2023-05-16T10:56:41.292Z,587.00
2023-05-16T10:57:42.173Z,612.00
2023-05-16T10:58:41.338Z,616.00
2023-05-16T10:59:41.389Z,619.00
2023-05-16T11:00:41.431Z,624.00
2023-05-16T11:01:41.517Z,624.00
2023-05-16T11:02:41.683Z,622.00
2023-05-16T11:03:43.427Z,620.00
2023-05-16T11:04:41.634Z,624.00
2023-05-16T11:05:41.679Z,626.00
2023-05-16T11:06:41.740Z,628.00
2023-05-16T11:07:41.779Z,625.00
2023-05-16T11:08:41.833Z,631.00
2023-05-16T11:09:41.897Z,632.00
2023-05-16T11:10:41.934Z,634.00
2023-05-16T11:11:41.983Z,639.00
2023-05-16T11:12:42.029Z,642.00
2023-05-16T11:13:42.072Z,643.00
2023-05-16T11:14:42.172Z,648.00
2023-05-16T11:15:42.178Z,650.00
2023-05-16T11:16:42.244Z,648.00
2023-05-16T11:17:44.058Z,648.00
2023-05-16T11:18:42.285Z,653.00
2023-05-16T11:19:42.305Z,654.00
2023-05-16T11:20:42.355Z,650.00
2023-05-16T11:21:42.309Z,651.00
2023-05-16T11:22:42.317Z,655.00
2023-05-16T11:23:42.317Z,656.00
2023-05-16T11:24:42.328Z,656.00
2023-05-16T11:25:42.330Z,659.00
2023-05-16T11:26:42.357Z,660.00
2023-05-16T11:27:43.400Z,661.00
2023-05-16T11:28:42.349Z,661.00
2023-05-16T11:29:42.349Z,664.00
2023-05-16T11:30:42.359Z,670.00
2023-05-16T11:31:42.442Z,677.00
2023-05-16T11:32:42.442Z,677.00
2023-05-16T11:33:42.412Z,683.00
2023-05-16T11:34:42.408Z,676.00
2023-05-16T11:35:42.438Z,691.00
2023-05-16T11:36:42.414Z,688.00
2023-05-16T11:37:42.426Z,689.00
2023-05-16T11:38:42.426Z,682.00
2023-05-16T11:39:42.469Z,694.00
2023-05-16T11:40:42.457Z,696.00
2023-05-16T11:41:42.487Z,696.00
2023-05-16T11:42:42.518Z,698.00
2023-05-16T11:43:42.554Z,699.00
2023-05-16T11:44:42.620Z,703.00
2023-05-16T11:45:42.645Z,705.00
2023-05-16T11:46:42.729Z,721.00
2023-05-16T11:47:42.778Z,712.00
2023-05-16T11:48:42.878Z,712.00
2023-05-16T11:49:42.836Z,719.00
2023-05-16T11:50:42.889Z,721.00
2023-05-16T11:51:42.944Z,718.00
2023-05-16T11:52:42.997Z,720.00
2023-05-16T11:53:43.038Z,722.00
2023-05-16T11:54:43.074Z,722.00
2023-05-16T11:55:43.203Z,726.00
2023-05-16T11:56:43.205Z,721.00
2023-05-16T11:57:43.234Z,734.00
2023-05-16T11:58:43.274Z,738.00
2023-05-16T11:59:43.339Z,728.00
2023-05-16T12:00:43.372Z,729.00
2023-05-16T12:01:43.428Z,734.00
2023-05-16T12:02:43.606Z,726.00
2023-05-16T12:03:43.689Z,745.00
2023-05-16T12:04:43.793Z,748.00
2023-05-16T12:05:43.672Z,785.00
2023-05-16T12:06:43.700Z,791.00
2023-05-16T12:07:43.808Z,795.00
2023-05-16T12:08:43.770Z,819.00
2023-05-16T12:09:43.812Z,810.00
2023-05-16T12:10:43.836Z,838.00
2023-05-16T12:11:43.874Z,829.00
2023-05-16T12:12:43.895Z,851.00
2023-05-16T12:13:43.926Z,861.00
2023-05-16T12:14:43.948Z,896.00
2023-05-16T12:15:43.969Z,902.00
2023-05-16T12:16:44.145Z,933.00
2023-05-16T12:17:44.790Z,936.00
2023-05-16T12:18:44.114Z,969.00
2023-05-16T12:19:44.068Z,998.00
2023-05-16T12:20:44.089Z,1015.00
2023-05-16T12:21:44.118Z,1041.00
2023-05-16T12:22:44.120Z,1051.00
2023-05-16T12:23:44.139Z,1072.00
2023-05-16T12:24:44.173Z,1086.00
2023-05-16T12:25:44.174Z,1107.00
2023-05-16T12:26:44.184Z,1113.00